Terminal Aerodrome Forecast
Issued by NWS

Home | Current Version | Previous Version | Text Only | Print | Product List | Glossary On
Versions: 1 2 3 4 5 6 7 8 9 10 11 12 13 14 15 16
000
FTUS44 KMAF 221700
TAFFST
TAF
KFST 221721Z 2218/2318 14012KT P6SM FEW015 OVC050
      TEMPO 2218/2222 6SM BR BKN015
     FM231100 15007KT P6SM FEW020 BKN040=

USA.gov is the U.S. government's official web portal to all federal, state and local government web resources and services.